EJU56EW EGPH-LEPA
Flight info
| Callsign | EJU56EW |
|---|---|
| Flight time | 2h 40m |
| Altitude | 35000 |
| Route | GOSAM P600 FENIK L612 ELBUS DCT NAVSO DCT AKOMU DCT VAMEB UL612 HON DCT SITET DCT ETRAT DCT DVL DCT LGL DCT SORAP DCT BENAR DCT VANAD DCT AMB DCT SOPIL DCT BALAN DCT EVPOK DCT NARAK DCT GAI DCT LOMRA DCT ROCAN DCT IBRAP DCT LUKEV DCT LORES |
| Aircraft | A320/M-SDE2E3FGHIJ1RWXYZ/LB1 |
Departure
| Time | 2026-05-05 08:50 |
|---|---|
| Airport | Edinburgh Airport (EGPH) |
Arrival
| Time | 2026-05-05 11:30 |
|---|---|
| Airport | Palma de Mallorca Airport (LEPA) |
| Time | Latitude | Longitude | Altitude | Speed | Heading |
|---|---|---|---|---|---|
| 2026-05-05 08:28 | 55.94921 | -3.36430 | 114 ft | 0 kts | 148° |
| 2026-05-05 08:40 | 55.94928 | -3.36438 | 113 ft | 4 kts | 148° |
| 2026-05-05 08:40 | 55.94947 | -3.36458 | 112 ft | 3 kts | 148° |
| 2026-05-05 08:41 | 55.94966 | -3.36487 | 113 ft | 4 kts | 115° |
| 2026-05-05 08:41 | 55.94968 | -3.36529 | 111 ft | 4 kts | 65° |
| 2026-05-05 08:41 | 55.94965 | -3.36542 | 111 ft | 0 kts | 58° |
| 2026-05-05 08:44 | 55.94965 | -3.36540 | 111 ft | 2 kts | 58° |
| 2026-05-05 08:44 | 55.94971 | -3.36524 | 112 ft | 1 kts | 58° |
| 2026-05-05 08:44 | 55.94973 | -3.36517 | 111 ft | 2 kts | 58° |
| 2026-05-05 08:44 | 55.94989 | -3.36470 | 115 ft | 7 kts | 58° |
| 2026-05-05 08:45 | 55.95015 | -3.36401 | 113 ft | 6 kts | 45° |
| 2026-05-05 08:45 | 55.95072 | -3.36402 | 114 ft | 11 kts | 2° |
| 2026-05-05 08:45 | 55.95122 | -3.36319 | 113 ft | 9 kts | 59° |
| 2026-05-05 08:45 | 55.95152 | -3.36228 | 115 ft | 8 kts | 59° |
| 2026-05-05 08:46 | 55.95192 | -3.36109 | 115 ft | 13 kts | 59° |
| 2026-05-05 08:46 | 55.95240 | -3.35966 | 111 ft | 13 kts | 59° |
| 2026-05-05 08:46 | 55.95288 | -3.35826 | 116 ft | 13 kts | 57° |
| 2026-05-05 08:46 | 55.95334 | -3.35692 | 115 ft | 12 kts | 59° |
| 2026-05-05 08:47 | 55.95376 | -3.35566 | 115 ft | 11 kts | 59° |
| 2026-05-05 08:47 | 55.95414 | -3.35454 | 112 ft | 9 kts | 59° |
| 2026-05-05 08:47 | 55.95427 | -3.35418 | 114 ft | 0 kts | 54° |
| 2026-05-05 08:48 | 55.95436 | -3.35405 | 114 ft | 6 kts | 35° |
| 2026-05-05 08:49 | 55.95483 | -3.35421 | 114 ft | 7 kts | 328° |
| 2026-05-05 08:49 | 55.95526 | -3.35466 | 115 ft | 11 kts | 329° |
| 2026-05-05 08:49 | 55.95568 | -3.35562 | 113 ft | 10 kts | 252° |
| 2026-05-05 08:49 | 55.95445 | -3.35940 | 110 ft | 72 kts | 238° |
| 2026-05-05 08:50 | 55.95067 | -3.37051 | 113 ft | 134 kts | 239° |
| 2026-05-05 08:50 | 55.94506 | -3.38712 | 164 ft | 178 kts | 240° |
| 2026-05-05 08:50 | 55.93885 | -3.40555 | 945 ft | 169 kts | 241° |
| 2026-05-05 08:50 | 55.93254 | -3.42329 | 1642 ft | 174 kts | 241° |
| 2026-05-05 08:51 | 55.92576 | -3.44260 | 1922 ft | 195 kts | 242° |
| 2026-05-05 08:51 | 55.91827 | -3.46439 | 2174 ft | 218 kts | 241° |
| 2026-05-05 08:51 | 55.90989 | -3.48880 | 2488 ft | 242 kts | 241° |
| 2026-05-05 08:51 | 55.90352 | -3.51753 | 2968 ft | 256 kts | 262° |
| 2026-05-05 08:52 | 55.90047 | -3.54914 | 3775 ft | 261 kts | 262° |
| 2026-05-05 08:52 | 55.89731 | -3.58116 | 4674 ft | 264 kts | 261° |
| 2026-05-05 08:52 | 55.89411 | -3.61350 | 5552 ft | 266 kts | 261° |
| 2026-05-05 08:52 | 55.89094 | -3.64546 | 6453 ft | 266 kts | 262° |
| 2026-05-05 08:53 | 55.88769 | -3.67788 | 7298 ft | 266 kts | 262° |
| 2026-05-05 08:53 | 55.88436 | -3.71055 | 8070 ft | 270 kts | 262° |
| 2026-05-05 08:53 | 55.88100 | -3.74356 | 8874 ft | 272 kts | 262° |
| 2026-05-05 08:53 | 55.87761 | -3.77686 | 9682 ft | 275 kts | 262° |
| 2026-05-05 08:54 | 55.87416 | -3.81055 | 10325 ft | 283 kts | 261° |
| 2026-05-05 08:54 | 55.86649 | -3.84438 | 10511 ft | 311 kts | 237° |
| 2026-05-05 08:54 | 55.84955 | -3.87011 | 10879 ft | 333 kts | 208° |
| 2026-05-05 08:54 | 55.82661 | -3.87903 | 11486 ft | 346 kts | 183° |
| 2026-05-05 08:55 | 55.80278 | -3.87515 | 12156 ft | 354 kts | 167° |
| 2026-05-05 08:55 | 55.77945 | -3.86015 | 12829 ft | 359 kts | 160° |
| 2026-05-05 08:55 | 55.75631 | -3.84305 | 13503 ft | 362 kts | 160° |
| 2026-05-05 08:55 | 55.73226 | -3.83027 | 14102 ft | 361 kts | 177° |
| 2026-05-05 08:56 | 55.70740 | -3.83202 | 14665 ft | 358 kts | 192° |
| 2026-05-05 08:56 | 55.68274 | -3.83899 | 15282 ft | 360 kts | 192° |
| 2026-05-05 08:56 | 55.65795 | -3.84602 | 15888 ft | 362 kts | 192° |
| 2026-05-05 08:56 | 55.63298 | -3.85313 | 16502 ft | 365 kts | 192° |
| 2026-05-05 08:57 | 55.60754 | -3.85745 | 17083 ft | 370 kts | 185° |
| 2026-05-05 08:57 | 55.58164 | -3.85707 | 17671 ft | 374 kts | 180° |
| 2026-05-05 08:57 | 55.55590 | -3.85388 | 18217 ft | 378 kts | 178° |
| 2026-05-05 08:57 | 55.52957 | -3.84947 | 18730 ft | 381 kts | 178° |
| 2026-05-05 08:58 | 55.50308 | -3.84499 | 19212 ft | 384 kts | 178° |
| 2026-05-05 08:58 | 55.47637 | -3.84095 | 19696 ft | 386 kts | 179° |
| 2026-05-05 08:58 | 55.44949 | -3.83744 | 20171 ft | 388 kts | 179° |
| 2026-05-05 08:58 | 55.42253 | -3.83433 | 20690 ft | 389 kts | 180° |
| 2026-05-05 08:59 | 55.39542 | -3.83151 | 21164 ft | 391 kts | 180° |
| 2026-05-05 08:59 | 55.36813 | -3.82877 | 21629 ft | 394 kts | 180° |
| 2026-05-05 08:59 | 55.34108 | -3.82607 | 22094 ft | 396 kts | 180° |
| 2026-05-05 08:59 | 55.31348 | -3.82324 | 22538 ft | 399 kts | 180° |
| 2026-05-05 09:00 | 55.28569 | -3.82036 | 22979 ft | 401 kts | 180° |
| 2026-05-05 09:00 | 55.25769 | -3.81734 | 23404 ft | 404 kts | 179° |
| 2026-05-05 09:00 | 55.22971 | -3.81053 | 23783 ft | 410 kts | 170° |
| 2026-05-05 09:00 | 55.20235 | -3.79519 | 24119 ft | 416 kts | 160° |
| 2026-05-05 09:01 | 55.17619 | -3.77310 | 24475 ft | 419 kts | 157° |
| 2026-05-05 09:01 | 55.15031 | -3.75074 | 24824 ft | 421 kts | 157° |
| 2026-05-05 09:01 | 55.12359 | -3.72795 | 25163 ft | 423 kts | 157° |
| 2026-05-05 09:01 | 55.09744 | -3.70572 | 25497 ft | 425 kts | 157° |
| 2026-05-05 09:02 | 55.07078 | -3.68299 | 25824 ft | 427 kts | 157° |
| 2026-05-05 09:02 | 55.04406 | -3.66017 | 26153 ft | 429 kts | 157° |
| 2026-05-05 09:02 | 55.01719 | -3.63719 | 26464 ft | 431 kts | 157° |
| 2026-05-05 09:02 | 54.99023 | -3.61412 | 26789 ft | 433 kts | 157° |
| 2026-05-05 09:03 | 54.96309 | -3.59097 | 27104 ft | 435 kts | 157° |
| 2026-05-05 09:03 | 54.93587 | -3.56775 | 27415 ft | 436 kts | 158° |
| 2026-05-05 09:03 | 54.90857 | -3.54454 | 27746 ft | 438 kts | 158° |
| 2026-05-05 09:03 | 54.88152 | -3.52162 | 28052 ft | 440 kts | 158° |
| 2026-05-05 09:04 | 54.85393 | -3.49828 | 28362 ft | 442 kts | 158° |
| 2026-05-05 09:04 | 54.82626 | -3.47492 | 28663 ft | 444 kts | 158° |
| 2026-05-05 09:04 | 54.79843 | -3.45150 | 28959 ft | 446 kts | 158° |
| 2026-05-05 09:04 | 54.77048 | -3.42804 | 29243 ft | 447 kts | 158° |
| 2026-05-05 09:05 | 54.74239 | -3.40444 | 29536 ft | 449 kts | 158° |
| 2026-05-05 09:05 | 54.71423 | -3.38073 | 29819 ft | 451 kts | 158° |
| 2026-05-05 09:05 | 54.68598 | -3.35695 | 30076 ft | 452 kts | 157° |
| 2026-05-05 09:05 | 54.65803 | -3.33349 | 30326 ft | 454 kts | 157° |
| 2026-05-05 09:06 | 54.62958 | -3.30966 | 30555 ft | 455 kts | 157° |
| 2026-05-05 09:06 | 54.60110 | -3.28586 | 30876 ft | 454 kts | 157° |
| 2026-05-05 09:06 | 54.57266 | -3.26216 | 31193 ft | 453 kts | 157° |
| 2026-05-05 09:06 | 54.54428 | -3.23856 | 31506 ft | 452 kts | 157° |
| 2026-05-05 09:07 | 54.51600 | -3.21507 | 31811 ft | 452 kts | 157° |
| 2026-05-05 09:07 | 54.48767 | -3.19158 | 32071 ft | 452 kts | 157° |
| 2026-05-05 09:07 | 54.45938 | -3.16814 | 32366 ft | 451 kts | 157° |
| 2026-05-05 09:07 | 54.43114 | -3.14478 | 32670 ft | 450 kts | 156° |
| 2026-05-05 09:08 | 54.40333 | -3.12180 | 32981 ft | 449 kts | 156° |
| 2026-05-05 09:08 | 54.37527 | -3.09864 | 33289 ft | 448 kts | 156° |
| 2026-05-05 09:08 | 54.34718 | -3.07550 | 33593 ft | 447 kts | 156° |
| 2026-05-05 09:08 | 54.31913 | -3.05245 | 33901 ft | 447 kts | 156° |
| 2026-05-05 09:09 | 54.29113 | -3.02949 | 34163 ft | 446 kts | 156° |
| 2026-05-05 09:09 | 54.26310 | -3.00657 | 34386 ft | 446 kts | 156° |
| 2026-05-05 09:09 | 54.23512 | -2.98367 | 34616 ft | 446 kts | 156° |
| 2026-05-05 09:09 | 54.20716 | -2.96083 | 34827 ft | 446 kts | 156° |
| 2026-05-05 09:10 | 54.17915 | -2.93802 | 35000 ft | 446 kts | 156° |
| 2026-05-05 09:10 | 54.12347 | -2.89485 | 35045 ft | 440 kts | 159° |
| 2026-05-05 09:11 | 54.06706 | -2.85453 | 35048 ft | 439 kts | 159° |
| 2026-05-05 09:11 | 54.01063 | -2.81461 | 35051 ft | 439 kts | 159° |
| 2026-05-05 09:12 | 53.95441 | -2.77413 | 35047 ft | 439 kts | 158° |
| 2026-05-05 09:12 | 53.89823 | -2.73329 | 35053 ft | 439 kts | 158° |
| 2026-05-05 09:13 | 53.84242 | -2.69288 | 35050 ft | 439 kts | 158° |
| 2026-05-05 09:13 | 53.78624 | -2.65263 | 35052 ft | 439 kts | 158° |
| 2026-05-05 09:14 | 53.73000 | -2.61246 | 35048 ft | 438 kts | 159° |
| 2026-05-05 09:14 | 53.67391 | -2.57235 | 35046 ft | 438 kts | 158° |
| 2026-05-05 09:15 | 53.61816 | -2.53260 | 35049 ft | 438 kts | 158° |
| 2026-05-05 09:15 | 53.56205 | -2.49279 | 35050 ft | 437 kts | 158° |
| 2026-05-05 09:16 | 53.50597 | -2.45315 | 35048 ft | 438 kts | 158° |
| 2026-05-05 09:16 | 53.44980 | -2.41358 | 35052 ft | 437 kts | 158° |
| 2026-05-05 09:17 | 53.39375 | -2.37402 | 35062 ft | 437 kts | 158° |
| 2026-05-05 09:17 | 53.33805 | -2.33486 | 35058 ft | 437 kts | 158° |
| 2026-05-05 09:18 | 53.28189 | -2.29565 | 35059 ft | 437 kts | 158° |
| 2026-05-05 09:18 | 53.22567 | -2.25651 | 35054 ft | 437 kts | 158° |
| 2026-05-05 09:19 | 53.16960 | -2.21749 | 35060 ft | 436 kts | 158° |
| 2026-05-05 09:19 | 53.11360 | -2.17855 | 35057 ft | 435 kts | 158° |
| 2026-05-05 09:20 | 53.05809 | -2.14007 | 35052 ft | 435 kts | 158° |
| 2026-05-05 09:20 | 53.00222 | -2.10153 | 35044 ft | 435 kts | 158° |
| 2026-05-05 09:21 | 52.94633 | -2.06305 | 35053 ft | 434 kts | 157° |
| 2026-05-05 09:21 | 52.89092 | -2.02498 | 35056 ft | 434 kts | 157° |
| 2026-05-05 09:22 | 52.83522 | -1.98685 | 35055 ft | 433 kts | 156° |
| 2026-05-05 09:22 | 52.77964 | -1.94900 | 35055 ft | 432 kts | 156° |
| 2026-05-05 09:23 | 52.72408 | -1.91128 | 35068 ft | 431 kts | 157° |
| 2026-05-05 09:23 | 52.66871 | -1.87368 | 35056 ft | 430 kts | 157° |
| 2026-05-05 09:24 | 52.61386 | -1.83649 | 35049 ft | 429 kts | 157° |
| 2026-05-05 09:24 | 52.55867 | -1.79919 | 35041 ft | 429 kts | 157° |
| 2026-05-05 09:25 | 52.50348 | -1.76194 | 35037 ft | 429 kts | 158° |
| 2026-05-05 09:25 | 52.44809 | -1.72473 | 35234 ft | 432 kts | 158° |
| 2026-05-05 09:25 | 52.42028 | -1.70617 | 35439 ft | 431 kts | 158° |
| 2026-05-05 09:26 | 52.39251 | -1.68770 | 35670 ft | 431 kts | 158° |
| 2026-05-05 09:26 | 52.36473 | -1.66926 | 35834 ft | 431 kts | 158° |
| 2026-05-05 09:26 | 52.33738 | -1.65056 | 35978 ft | 432 kts | 156° |
| 2026-05-05 09:26 | 52.31000 | -1.63012 | 36129 ft | 433 kts | 155° |
| 2026-05-05 09:27 | 52.28286 | -1.60868 | 36305 ft | 433 kts | 154° |
| 2026-05-05 09:27 | 52.25580 | -1.58685 | 36449 ft | 434 kts | 154° |
| 2026-05-05 09:27 | 52.22869 | -1.56499 | 36602 ft | 434 kts | 155° |
| 2026-05-05 09:27 | 52.20156 | -1.54341 | 36767 ft | 434 kts | 155° |
| 2026-05-05 09:28 | 52.17434 | -1.52211 | 36945 ft | 434 kts | 155° |
| 2026-05-05 09:28 | 52.11996 | -1.48023 | 37003 ft | 435 kts | 156° |
| 2026-05-05 09:29 | 52.06519 | -1.43833 | 37007 ft | 435 kts | 156° |
| 2026-05-05 09:29 | 52.01054 | -1.39654 | 37007 ft | 433 kts | 156° |
| 2026-05-05 09:30 | 51.95609 | -1.35495 | 36999 ft | 432 kts | 156° |
| 2026-05-05 09:30 | 51.90164 | -1.31341 | 37001 ft | 433 kts | 156° |
| 2026-05-05 09:31 | 51.84747 | -1.27223 | 37008 ft | 433 kts | 156° |
| 2026-05-05 09:31 | 51.79291 | -1.23099 | 37000 ft | 433 kts | 156° |
| 2026-05-05 09:32 | 51.73838 | -1.18988 | 37007 ft | 433 kts | 156° |
| 2026-05-05 09:32 | 51.68380 | -1.14870 | 37011 ft | 433 kts | 156° |
| 2026-05-05 09:33 | 51.62928 | -1.10757 | 37013 ft | 432 kts | 156° |
| 2026-05-05 09:33 | 51.57481 | -1.06674 | 37014 ft | 432 kts | 156° |
| 2026-05-05 09:34 | 51.52031 | -1.02596 | 37011 ft | 432 kts | 156° |
| 2026-05-05 09:34 | 51.46618 | -0.98546 | 37011 ft | 432 kts | 156° |
| 2026-05-05 09:35 | 51.41169 | -0.94490 | 36998 ft | 432 kts | 156° |
| 2026-05-05 09:35 | 51.32978 | -0.88423 | 36991 ft | 433 kts | 157° |
| 2026-05-05 09:36 | 51.27509 | -0.84377 | 36999 ft | 433 kts | 156° |
| 2026-05-05 09:36 | 51.22077 | -0.80378 | 37002 ft | 434 kts | 157° |
| 2026-05-05 09:37 | 51.16603 | -0.76362 | 37003 ft | 433 kts | 157° |
| 2026-05-05 09:37 | 51.11122 | -0.72347 | 36995 ft | 434 kts | 156° |
| 2026-05-05 09:38 | 51.05720 | -0.68393 | 36990 ft | 434 kts | 156° |
| 2026-05-05 09:38 | 51.00239 | -0.64388 | 36976 ft | 434 kts | 157° |
| 2026-05-05 09:39 | 50.94790 | -0.60421 | 36974 ft | 434 kts | 157° |
| 2026-05-05 09:39 | 50.89309 | -0.56432 | 36975 ft | 433 kts | 157° |
| 2026-05-05 09:40 | 50.83826 | -0.52462 | 36969 ft | 433 kts | 157° |
| 2026-05-05 09:40 | 50.78342 | -0.48499 | 36976 ft | 433 kts | 157° |
| 2026-05-05 09:41 | 50.72890 | -0.44583 | 36974 ft | 433 kts | 157° |
| 2026-05-05 09:41 | 50.67403 | -0.40647 | 36972 ft | 433 kts | 157° |
| 2026-05-05 09:42 | 50.61914 | -0.36707 | 36964 ft | 433 kts | 157° |
| 2026-05-05 09:42 | 50.56428 | -0.32790 | 36967 ft | 433 kts | 157° |
| 2026-05-05 09:43 | 50.50945 | -0.28887 | 36971 ft | 432 kts | 157° |
| 2026-05-05 09:43 | 50.45501 | -0.25012 | 36972 ft | 432 kts | 157° |
| 2026-05-05 09:44 | 50.40020 | -0.21125 | 36978 ft | 432 kts | 158° |
| 2026-05-05 09:44 | 50.34557 | -0.17259 | 36980 ft | 430 kts | 158° |
| 2026-05-05 09:45 | 50.29101 | -0.13409 | 36975 ft | 430 kts | 158° |
| 2026-05-05 09:45 | 50.23655 | -0.09578 | 36971 ft | 429 kts | 157° |
| 2026-05-05 09:46 | 50.18249 | -0.05777 | 36963 ft | 429 kts | 157° |
| 2026-05-05 09:46 | 50.12811 | -0.01966 | 36972 ft | 428 kts | 157° |
| 2026-05-05 09:47 | 50.07234 | 0.01108 | 36967 ft | 424 kts | 167° |
| 2026-05-05 09:47 | 50.01513 | 0.03349 | 36958 ft | 424 kts | 167° |
| 2026-05-05 09:48 | 49.95837 | 0.05574 | 36955 ft | 423 kts | 167° |
| 2026-05-05 09:48 | 49.90137 | 0.07815 | 36964 ft | 422 kts | 167° |
| 2026-05-05 09:49 | 49.84445 | 0.10050 | 36952 ft | 421 kts | 167° |
| 2026-05-05 09:49 | 49.78762 | 0.12263 | 36942 ft | 421 kts | 167° |
| 2026-05-05 09:50 | 49.73131 | 0.14459 | 36938 ft | 420 kts | 167° |
| 2026-05-05 09:50 | 49.67457 | 0.16657 | 36935 ft | 420 kts | 167° |
| 2026-05-05 09:51 | 49.61800 | 0.18909 | 36937 ft | 420 kts | 166° |
| 2026-05-05 09:51 | 49.56152 | 0.21216 | 36933 ft | 420 kts | 166° |
| 2026-05-05 09:52 | 49.50548 | 0.23506 | 36928 ft | 420 kts | 166° |
| 2026-05-05 09:52 | 49.44903 | 0.25776 | 36923 ft | 420 kts | 166° |
| 2026-05-05 09:53 | 49.39248 | 0.28021 | 36926 ft | 420 kts | 166° |
| 2026-05-05 09:53 | 49.33588 | 0.30261 | 36927 ft | 420 kts | 166° |
| 2026-05-05 09:54 | 49.28883 | 0.32138 | 36928 ft | 420 kts | 165° |
| 2026-05-05 09:54 | 49.22337 | 0.34908 | 36917 ft | 420 kts | 165° |
| 2026-05-05 09:55 | 49.16711 | 0.37315 | 36903 ft | 420 kts | 165° |
| 2026-05-05 09:55 | 49.11079 | 0.39689 | 36893 ft | 420 kts | 165° |
| 2026-05-05 09:56 | 49.06399 | 0.41657 | 36893 ft | 420 kts | 165° |
| 2026-05-05 09:56 | 48.99844 | 0.44388 | 36888 ft | 421 kts | 165° |
| 2026-05-05 09:57 | 48.95149 | 0.46341 | 36894 ft | 420 kts | 165° |
| 2026-05-05 09:57 | 48.89512 | 0.48683 | 36888 ft | 420 kts | 165° |
| 2026-05-05 09:58 | 48.83878 | 0.51025 | 36901 ft | 420 kts | 165° |
| 2026-05-05 09:58 | 48.78241 | 0.53359 | 36891 ft | 420 kts | 165° |
| 2026-05-05 09:59 | 48.72595 | 0.55600 | 36881 ft | 419 kts | 166° |
| 2026-05-05 09:59 | 48.66979 | 0.57772 | 36883 ft | 419 kts | 166° |
| 2026-05-05 10:00 | 48.61322 | 0.59966 | 36887 ft | 420 kts | 166° |
| 2026-05-05 10:00 | 48.55665 | 0.62164 | 36879 ft | 420 kts | 166° |
| 2026-05-05 10:01 | 48.50012 | 0.64379 | 36880 ft | 420 kts | 165° |
| 2026-05-05 10:01 | 48.44406 | 0.66668 | 36874 ft | 420 kts | 165° |
| 2026-05-05 10:02 | 48.38770 | 0.68988 | 36873 ft | 420 kts | 165° |
| 2026-05-05 10:02 | 48.33119 | 0.71301 | 36866 ft | 421 kts | 165° |
| 2026-05-05 10:03 | 48.27461 | 0.73586 | 36868 ft | 421 kts | 165° |
| 2026-05-05 10:03 | 48.21829 | 0.75823 | 36865 ft | 421 kts | 165° |
| 2026-05-05 10:04 | 48.16159 | 0.78041 | 36854 ft | 422 kts | 165° |
| 2026-05-05 10:04 | 48.10483 | 0.80273 | 36853 ft | 422 kts | 165° |
| 2026-05-05 10:05 | 48.04801 | 0.82504 | 36849 ft | 422 kts | 165° |
| 2026-05-05 10:05 | 47.99117 | 0.84717 | 36850 ft | 422 kts | 165° |
| 2026-05-05 10:06 | 47.93471 | 0.86923 | 36839 ft | 422 kts | 166° |
| 2026-05-05 10:06 | 47.87784 | 0.89138 | 36842 ft | 422 kts | 166° |
| 2026-05-05 10:07 | 47.82110 | 0.91339 | 36842 ft | 421 kts | 166° |
| 2026-05-05 10:07 | 47.76438 | 0.93537 | 36839 ft | 421 kts | 166° |
| 2026-05-05 10:08 | 47.70800 | 0.95714 | 36836 ft | 422 kts | 166° |
| 2026-05-05 10:08 | 47.65110 | 0.97903 | 36834 ft | 423 kts | 166° |
| 2026-05-05 10:09 | 47.59418 | 1.00100 | 36842 ft | 423 kts | 166° |
| 2026-05-05 10:09 | 47.53714 | 1.02298 | 36851 ft | 424 kts | 166° |
| 2026-05-05 10:10 | 47.48003 | 1.04487 | 36857 ft | 424 kts | 166° |
| 2026-05-05 10:10 | 47.42280 | 1.06304 | 36861 ft | 423 kts | 176° |
| 2026-05-05 10:11 | 47.36392 | 1.06303 | 36877 ft | 423 kts | 181° |
| 2026-05-05 10:11 | 47.30506 | 1.06153 | 36878 ft | 423 kts | 181° |
| 2026-05-05 10:12 | 47.24626 | 1.06004 | 36871 ft | 423 kts | 181° |
| 2026-05-05 10:12 | 47.18784 | 1.05866 | 36883 ft | 423 kts | 181° |
| 2026-05-05 10:13 | 47.12905 | 1.05736 | 36875 ft | 422 kts | 181° |
| 2026-05-05 10:13 | 47.07033 | 1.05603 | 36867 ft | 422 kts | 181° |
| 2026-05-05 10:14 | 47.01159 | 1.05454 | 36874 ft | 422 kts | 181° |
| 2026-05-05 10:14 | 46.95327 | 1.05222 | 36871 ft | 422 kts | 182° |
| 2026-05-05 10:15 | 46.89450 | 1.04946 | 36856 ft | 423 kts | 182° |
| 2026-05-05 10:15 | 46.83569 | 1.04676 | 36863 ft | 423 kts | 182° |
| 2026-05-05 10:16 | 46.77685 | 1.04422 | 36869 ft | 423 kts | 182° |
| 2026-05-05 10:16 | 46.71797 | 1.04172 | 36867 ft | 423 kts | 182° |
| 2026-05-05 10:17 | 46.65946 | 1.03919 | 36873 ft | 423 kts | 182° |
| 2026-05-05 10:17 | 46.60053 | 1.03676 | 36875 ft | 424 kts | 182° |
| 2026-05-05 10:18 | 46.54159 | 1.03436 | 36879 ft | 424 kts | 182° |
| 2026-05-05 10:18 | 46.48349 | 1.04404 | 36870 ft | 426 kts | 168° |
| 2026-05-05 10:19 | 46.42573 | 1.06340 | 36871 ft | 426 kts | 168° |
| 2026-05-05 10:19 | 46.36790 | 1.08282 | 36876 ft | 427 kts | 168° |
| 2026-05-05 10:20 | 46.30999 | 1.10223 | 36884 ft | 427 kts | 168° |
| 2026-05-05 10:20 | 46.25208 | 1.12151 | 36882 ft | 428 kts | 168° |
| 2026-05-05 10:21 | 46.19444 | 1.14064 | 36888 ft | 428 kts | 168° |
| 2026-05-05 10:21 | 46.13639 | 1.15985 | 36902 ft | 428 kts | 168° |
| 2026-05-05 10:22 | 46.07826 | 1.17896 | 36912 ft | 428 kts | 168° |
| 2026-05-05 10:22 | 46.02014 | 1.19811 | 36913 ft | 428 kts | 168° |
| 2026-05-05 10:23 | 45.96212 | 1.21727 | 36919 ft | 428 kts | 169° |
| 2026-05-05 10:23 | 45.90452 | 1.23621 | 36921 ft | 428 kts | 169° |
| 2026-05-05 10:24 | 45.84647 | 1.25515 | 36923 ft | 428 kts | 169° |
| 2026-05-05 10:24 | 45.78844 | 1.27410 | 36925 ft | 428 kts | 169° |
| 2026-05-05 10:25 | 45.73039 | 1.29304 | 36925 ft | 428 kts | 169° |
| 2026-05-05 10:25 | 45.67276 | 1.31185 | 36925 ft | 428 kts | 169° |
| 2026-05-05 10:26 | 45.61473 | 1.33076 | 36920 ft | 428 kts | 169° |
| 2026-05-05 10:26 | 45.55670 | 1.34955 | 36925 ft | 428 kts | 169° |
| 2026-05-05 10:27 | 45.49860 | 1.36830 | 36930 ft | 428 kts | 169° |
| 2026-05-05 10:27 | 45.44081 | 1.38693 | 36934 ft | 429 kts | 169° |
| 2026-05-05 10:28 | 45.38266 | 1.40565 | 36936 ft | 428 kts | 169° |
| 2026-05-05 10:28 | 45.32451 | 1.42439 | 36943 ft | 429 kts | 170° |
| 2026-05-05 10:29 | 45.26630 | 1.44302 | 36946 ft | 429 kts | 170° |
| 2026-05-05 10:29 | 45.20853 | 1.46151 | 36953 ft | 429 kts | 170° |
| 2026-05-05 10:30 | 45.15032 | 1.48016 | 36948 ft | 429 kts | 170° |
| 2026-05-05 10:30 | 45.09210 | 1.49876 | 36948 ft | 429 kts | 170° |
| 2026-05-05 10:31 | 45.03420 | 1.51716 | 36953 ft | 429 kts | 170° |
| 2026-05-05 10:31 | 44.97592 | 1.53570 | 36936 ft | 429 kts | 171° |
| 2026-05-05 10:32 | 44.91763 | 1.55410 | 36948 ft | 429 kts | 171° |
| 2026-05-05 10:32 | 44.85935 | 1.57243 | 36962 ft | 429 kts | 171° |
| 2026-05-05 10:33 | 44.80107 | 1.59083 | 36966 ft | 429 kts | 171° |
| 2026-05-05 10:33 | 44.74318 | 1.60904 | 36968 ft | 429 kts | 171° |
| 2026-05-05 10:34 | 44.68496 | 1.62732 | 36966 ft | 429 kts | 171° |
| 2026-05-05 10:34 | 44.62669 | 1.64561 | 36972 ft | 429 kts | 171° |
| 2026-05-05 10:35 | 44.56844 | 1.66389 | 36967 ft | 429 kts | 171° |
| 2026-05-05 10:35 | 44.51019 | 1.68199 | 36975 ft | 428 kts | 171° |
| 2026-05-05 10:36 | 44.45237 | 1.69992 | 36978 ft | 429 kts | 171° |
| 2026-05-05 10:36 | 44.39419 | 1.71804 | 36965 ft | 428 kts | 171° |
| 2026-05-05 10:37 | 44.33605 | 1.73616 | 36976 ft | 428 kts | 171° |
| 2026-05-05 10:37 | 44.27785 | 1.75375 | 36978 ft | 427 kts | 173° |
| 2026-05-05 10:38 | 44.21940 | 1.76723 | 36979 ft | 425 kts | 175° |
| 2026-05-05 10:38 | 44.16120 | 1.77887 | 36972 ft | 425 kts | 176° |
| 2026-05-05 10:39 | 44.10263 | 1.79109 | 36973 ft | 426 kts | 175° |
| 2026-05-05 10:39 | 44.04409 | 1.80403 | 36975 ft | 426 kts | 175° |
| 2026-05-05 10:40 | 43.98564 | 1.81715 | 36965 ft | 425 kts | 175° |
| 2026-05-05 10:40 | 43.92753 | 1.82860 | 36974 ft | 423 kts | 179° |
| 2026-05-05 10:41 | 43.86895 | 1.83446 | 36987 ft | 421 kts | 181° |
| 2026-05-05 10:41 | 43.81042 | 1.83847 | 36982 ft | 421 kts | 181° |
| 2026-05-05 10:42 | 43.72271 | 1.84622 | 37002 ft | 421 kts | 180° |
| 2026-05-05 10:43 | 43.66469 | 1.85206 | 37000 ft | 420 kts | 180° |
| 2026-05-05 10:43 | 43.60643 | 1.85783 | 36984 ft | 419 kts | 181° |
| 2026-05-05 10:44 | 43.54827 | 1.86349 | 36996 ft | 418 kts | 181° |
| 2026-05-05 10:44 | 43.49024 | 1.86904 | 36993 ft | 418 kts | 181° |
| 2026-05-05 10:45 | 43.43271 | 1.87457 | 36990 ft | 417 kts | 181° |
| 2026-05-05 10:45 | 43.37488 | 1.88008 | 36976 ft | 416 kts | 182° |
| 2026-05-05 10:46 | 43.31721 | 1.88554 | 36984 ft | 415 kts | 181° |
| 2026-05-05 10:46 | 43.25963 | 1.89107 | 36988 ft | 415 kts | 181° |
| 2026-05-05 10:47 | 43.20211 | 1.89661 | 36968 ft | 414 kts | 182° |
| 2026-05-05 10:47 | 43.14510 | 1.90204 | 36973 ft | 413 kts | 182° |
| 2026-05-05 10:48 | 43.08776 | 1.90739 | 36987 ft | 413 kts | 182° |
| 2026-05-05 10:48 | 43.03046 | 1.91279 | 36966 ft | 412 kts | 182° |
| 2026-05-05 10:49 | 42.97333 | 1.91824 | 36946 ft | 410 kts | 182° |
| 2026-05-05 10:49 | 42.91680 | 1.92365 | 36967 ft | 410 kts | 182° |
| 2026-05-05 10:50 | 42.86000 | 1.92900 | 36971 ft | 409 kts | 183° |
| 2026-05-05 10:50 | 42.80331 | 1.93436 | 36966 ft | 408 kts | 182° |
| 2026-05-05 10:51 | 42.74670 | 1.93973 | 36959 ft | 408 kts | 182° |
| 2026-05-05 10:51 | 42.69044 | 1.94502 | 36958 ft | 408 kts | 182° |
| 2026-05-05 10:52 | 42.63400 | 1.96064 | 36947 ft | 418 kts | 173° |
| 2026-05-05 10:52 | 42.57797 | 1.98097 | 36924 ft | 416 kts | 173° |
| 2026-05-05 10:53 | 42.52199 | 2.00127 | 36928 ft | 417 kts | 173° |
| 2026-05-05 10:53 | 42.46595 | 2.02133 | 36935 ft | 417 kts | 173° |
| 2026-05-05 10:54 | 42.41024 | 2.04124 | 36925 ft | 416 kts | 173° |
| 2026-05-05 10:54 | 42.35422 | 2.06113 | 36920 ft | 417 kts | 173° |
| 2026-05-05 10:55 | 42.29817 | 2.08117 | 36938 ft | 416 kts | 173° |
| 2026-05-05 10:55 | 42.24220 | 2.10111 | 36942 ft | 416 kts | 173° |
| 2026-05-05 10:56 | 42.18628 | 2.12091 | 36923 ft | 416 kts | 173° |
| 2026-05-05 10:56 | 42.13074 | 2.14046 | 36912 ft | 415 kts | 173° |
| 2026-05-05 10:57 | 42.07479 | 2.16017 | 36927 ft | 416 kts | 173° |
| 2026-05-05 10:57 | 42.01887 | 2.17994 | 36934 ft | 416 kts | 173° |
| 2026-05-05 10:58 | 41.96287 | 2.19962 | 36904 ft | 415 kts | 174° |
| 2026-05-05 10:58 | 41.90729 | 2.21909 | 36911 ft | 416 kts | 173° |
| 2026-05-05 10:59 | 41.85131 | 2.23879 | 36918 ft | 416 kts | 173° |
| 2026-05-05 10:59 | 41.79521 | 2.25841 | 36934 ft | 417 kts | 173° |
| 2026-05-05 11:00 | 41.73894 | 2.27806 | 36913 ft | 420 kts | 174° |
| 2026-05-05 11:00 | 41.68190 | 2.29792 | 36931 ft | 425 kts | 173° |
| 2026-05-05 11:01 | 41.62512 | 2.31776 | 36951 ft | 425 kts | 174° |
| 2026-05-05 11:01 | 41.56787 | 2.33771 | 36961 ft | 425 kts | 173° |
| 2026-05-05 11:02 | 41.51075 | 2.35756 | 36934 ft | 424 kts | 174° |
| 2026-05-05 11:02 | 41.45352 | 2.37736 | 36940 ft | 424 kts | 174° |
| 2026-05-05 11:03 | 41.39676 | 2.39693 | 36953 ft | 424 kts | 174° |
| 2026-05-05 11:03 | 41.33964 | 2.41666 | 36954 ft | 424 kts | 174° |
| 2026-05-05 11:03 | 41.31114 | 2.42648 | 36529 ft | 423 kts | 175° |
| 2026-05-05 11:04 | 41.28270 | 2.43629 | 35894 ft | 421 kts | 175° |
| 2026-05-05 11:04 | 41.25440 | 2.44609 | 35279 ft | 420 kts | 175° |
| 2026-05-05 11:04 | 41.22617 | 2.45586 | 34685 ft | 418 kts | 175° |
| 2026-05-05 11:04 | 41.19807 | 2.46553 | 34100 ft | 416 kts | 175° |
| 2026-05-05 11:05 | 41.17004 | 2.47512 | 33414 ft | 415 kts | 175° |
| 2026-05-05 11:05 | 41.14223 | 2.48467 | 32855 ft | 411 kts | 175° |
| 2026-05-05 11:05 | 41.11472 | 2.49418 | 32284 ft | 407 kts | 175° |
| 2026-05-05 11:05 | 41.08778 | 2.50349 | 31708 ft | 403 kts | 176° |
| 2026-05-05 11:06 | 41.06074 | 2.51276 | 31143 ft | 400 kts | 176° |
| 2026-05-05 11:06 | 41.03389 | 2.52195 | 30619 ft | 397 kts | 176° |
| 2026-05-05 11:06 | 41.00725 | 2.53104 | 30098 ft | 394 kts | 176° |
| 2026-05-05 11:06 | 40.98080 | 2.54000 | 29499 ft | 391 kts | 176° |
| 2026-05-05 11:07 | 40.95457 | 2.54887 | 28916 ft | 387 kts | 176° |
| 2026-05-05 11:07 | 40.92856 | 2.55768 | 28349 ft | 384 kts | 176° |
| 2026-05-05 11:07 | 40.90280 | 2.56644 | 27789 ft | 381 kts | 176° |
| 2026-05-05 11:07 | 40.87756 | 2.57506 | 27202 ft | 378 kts | 175° |
| 2026-05-05 11:08 | 40.85219 | 2.58373 | 26641 ft | 375 kts | 175° |
| 2026-05-05 11:08 | 40.82697 | 2.59229 | 26096 ft | 373 kts | 175° |
| 2026-05-05 11:08 | 40.80193 | 2.60078 | 25567 ft | 370 kts | 175° |
| 2026-05-05 11:08 | 40.77707 | 2.60920 | 25045 ft | 368 kts | 175° |
| 2026-05-05 11:09 | 40.75230 | 2.61756 | 24543 ft | 366 kts | 174° |
| 2026-05-05 11:09 | 40.72771 | 2.62590 | 24041 ft | 364 kts | 174° |
| 2026-05-05 11:09 | 40.70329 | 2.63413 | 23551 ft | 362 kts | 174° |
| 2026-05-05 11:09 | 40.67900 | 2.64233 | 22984 ft | 360 kts | 174° |
| 2026-05-05 11:10 | 40.65512 | 2.65036 | 22452 ft | 357 kts | 174° |
| 2026-05-05 11:10 | 40.63111 | 2.65845 | 21943 ft | 355 kts | 173° |
| 2026-05-05 11:10 | 40.60722 | 2.66652 | 21489 ft | 352 kts | 173° |
| 2026-05-05 11:10 | 40.58395 | 2.67444 | 21335 ft | 340 kts | 173° |
| 2026-05-05 11:11 | 40.56141 | 2.68212 | 21157 ft | 330 kts | 173° |
| 2026-05-05 11:11 | 40.53935 | 2.68957 | 20838 ft | 325 kts | 173° |
| 2026-05-05 11:11 | 40.51753 | 2.69688 | 20446 ft | 322 kts | 173° |
| 2026-05-05 11:11 | 40.49614 | 2.70625 | 20053 ft | 328 kts | 164° |
| 2026-05-05 11:12 | 40.47575 | 2.72017 | 19655 ft | 331 kts | 159° |
| 2026-05-05 11:12 | 40.45596 | 2.73463 | 19276 ft | 329 kts | 159° |
| 2026-05-05 11:12 | 40.43597 | 2.74914 | 18897 ft | 328 kts | 159° |
| 2026-05-05 11:12 | 40.41601 | 2.76355 | 18515 ft | 327 kts | 159° |
| 2026-05-05 11:13 | 40.39611 | 2.77788 | 18143 ft | 326 kts | 159° |
| 2026-05-05 11:13 | 40.37632 | 2.79216 | 17755 ft | 324 kts | 159° |
| 2026-05-05 11:13 | 40.35665 | 2.80638 | 17391 ft | 322 kts | 158° |
| 2026-05-05 11:13 | 40.33708 | 2.82052 | 17027 ft | 320 kts | 158° |
| 2026-05-05 11:14 | 40.31767 | 2.83454 | 16688 ft | 318 kts | 158° |
| 2026-05-05 11:14 | 40.29866 | 2.84829 | 16354 ft | 315 kts | 158° |
| 2026-05-05 11:14 | 40.27955 | 2.86214 | 16019 ft | 313 kts | 158° |
| 2026-05-05 11:14 | 40.26052 | 2.87591 | 15690 ft | 312 kts | 158° |
| 2026-05-05 11:15 | 40.24156 | 2.88957 | 15373 ft | 309 kts | 158° |
| 2026-05-05 11:15 | 40.22297 | 2.90300 | 15242 ft | 301 kts | 158° |
| 2026-05-05 11:15 | 40.20494 | 2.91605 | 15096 ft | 293 kts | 158° |
| 2026-05-05 11:15 | 40.18733 | 2.92875 | 14948 ft | 286 kts | 158° |
| 2026-05-05 11:16 | 40.16995 | 2.94119 | 14707 ft | 283 kts | 158° |
| 2026-05-05 11:16 | 40.15278 | 2.95361 | 14439 ft | 283 kts | 154° |
| 2026-05-05 11:16 | 40.13834 | 2.97152 | 14180 ft | 293 kts | 131° |
| 2026-05-05 11:16 | 40.12710 | 2.99379 | 13900 ft | 294 kts | 128° |
| 2026-05-05 11:17 | 40.11648 | 3.01612 | 13635 ft | 293 kts | 127° |
| 2026-05-05 11:17 | 40.10576 | 3.03866 | 13344 ft | 291 kts | 127° |
| 2026-05-05 11:17 | 40.09509 | 3.06104 | 13025 ft | 289 kts | 127° |
| 2026-05-05 11:17 | 40.08446 | 3.08330 | 12621 ft | 291 kts | 129° |
| 2026-05-05 11:18 | 40.07054 | 3.10226 | 12001 ft | 289 kts | 153° |
| 2026-05-05 11:18 | 40.05218 | 3.11162 | 11592 ft | 282 kts | 170° |
| 2026-05-05 11:18 | 40.03304 | 3.11722 | 11227 ft | 281 kts | 172° |
| 2026-05-05 11:18 | 40.01392 | 3.12234 | 10889 ft | 280 kts | 172° |
| 2026-05-05 11:19 | 39.99488 | 3.12730 | 10541 ft | 276 kts | 172° |
| 2026-05-05 11:19 | 39.97637 | 3.13209 | 10198 ft | 268 kts | 172° |
| 2026-05-05 11:19 | 39.95840 | 3.13583 | 9846 ft | 262 kts | 179° |
| 2026-05-05 11:19 | 39.94043 | 3.13659 | 9455 ft | 254 kts | 182° |
| 2026-05-05 11:20 | 39.92295 | 3.13651 | 9060 ft | 248 kts | 187° |
| 2026-05-05 11:20 | 39.90616 | 3.13351 | 8674 ft | 239 kts | 192° |
| 2026-05-05 11:20 | 39.88992 | 3.12979 | 8293 ft | 236 kts | 192° |
| 2026-05-05 11:20 | 39.87376 | 3.12596 | 7918 ft | 237 kts | 192° |
| 2026-05-05 11:21 | 39.85752 | 3.12205 | 7546 ft | 237 kts | 192° |
| 2026-05-05 11:21 | 39.84129 | 3.11813 | 7177 ft | 238 kts | 192° |
| 2026-05-05 11:21 | 39.82520 | 3.11423 | 6817 ft | 238 kts | 192° |
| 2026-05-05 11:21 | 39.80888 | 3.11037 | 6455 ft | 239 kts | 192° |
| 2026-05-05 11:22 | 39.79258 | 3.10663 | 6071 ft | 235 kts | 192° |
| 2026-05-05 11:22 | 39.77673 | 3.10304 | 5710 ft | 226 kts | 191° |
| 2026-05-05 11:22 | 39.76161 | 3.09960 | 5456 ft | 215 kts | 192° |
| 2026-05-05 11:22 | 39.74716 | 3.09631 | 5205 ft | 207 kts | 191° |
| 2026-05-05 11:23 | 39.73322 | 3.09312 | 4960 ft | 200 kts | 192° |
| 2026-05-05 11:23 | 39.71995 | 3.08922 | 4710 ft | 192 kts | 203° |
| 2026-05-05 11:23 | 39.70864 | 3.08098 | 4527 ft | 182 kts | 219° |
| 2026-05-05 11:23 | 39.70029 | 3.06915 | 4497 ft | 180 kts | 234° |
| 2026-05-05 11:24 | 39.69352 | 3.05537 | 4497 ft | 182 kts | 237° |
| 2026-05-05 11:24 | 39.68697 | 3.04150 | 4518 ft | 178 kts | 237° |
| 2026-05-05 11:24 | 39.68047 | 3.02764 | 4511 ft | 181 kts | 238° |
| 2026-05-05 11:24 | 39.67389 | 3.01360 | 4371 ft | 181 kts | 237° |
| 2026-05-05 11:25 | 39.66740 | 2.99976 | 4164 ft | 179 kts | 238° |
| 2026-05-05 11:25 | 39.66093 | 2.98596 | 3936 ft | 179 kts | 238° |
| 2026-05-05 11:25 | 39.65460 | 2.97247 | 3714 ft | 175 kts | 237° |
| 2026-05-05 11:25 | 39.64833 | 2.95910 | 3477 ft | 172 kts | 237° |
| 2026-05-05 11:26 | 39.64221 | 2.94606 | 3262 ft | 167 kts | 236° |
| 2026-05-05 11:26 | 39.63623 | 2.93332 | 3039 ft | 164 kts | 239° |
| 2026-05-05 11:26 | 39.63033 | 2.92076 | 2825 ft | 162 kts | 237° |
| 2026-05-05 11:26 | 39.62455 | 2.90846 | 2617 ft | 157 kts | 236° |
| 2026-05-05 11:27 | 39.61892 | 2.89648 | 2404 ft | 154 kts | 237° |
| 2026-05-05 11:27 | 39.61338 | 2.88471 | 2200 ft | 152 kts | 236° |
| 2026-05-05 11:27 | 39.60791 | 2.87307 | 1998 ft | 151 kts | 236° |
| 2026-05-05 11:27 | 39.60239 | 2.86136 | 1808 ft | 155 kts | 237° |
| 2026-05-05 11:28 | 39.59675 | 2.84938 | 1589 ft | 154 kts | 234° |
| 2026-05-05 11:28 | 39.59138 | 2.83796 | 1380 ft | 147 kts | 237° |
| 2026-05-05 11:28 | 39.58608 | 2.82673 | 1194 ft | 145 kts | 237° |
| 2026-05-05 11:28 | 39.58085 | 2.81564 | 999 ft | 145 kts | 237° |
| 2026-05-05 11:29 | 39.57569 | 2.80469 | 830 ft | 142 kts | 237° |
| 2026-05-05 11:29 | 39.57054 | 2.79377 | 635 ft | 143 kts | 238° |
| 2026-05-05 11:29 | 39.56542 | 2.78284 | 454 ft | 142 kts | 238° |
| 2026-05-05 11:29 | 39.56014 | 2.77182 | 238 ft | 143 kts | 238° |
| 2026-05-05 11:30 | 39.55510 | 2.76091 | 87 ft | 139 kts | 238° |
| 2026-05-05 11:30 | 39.55034 | 2.75090 | 30 ft | 112 kts | 238° |
| 2026-05-05 11:30 | 39.54715 | 2.74421 | 30 ft | 63 kts | 238° |
| 2026-05-05 11:30 | 39.54545 | 2.74056 | 30 ft | 38 kts | 240° |
| 2026-05-05 11:31 | 39.54434 | 2.73809 | 30 ft | 14 kts | 249° |
| 2026-05-05 11:31 | 39.54483 | 2.73727 | 30 ft | 12 kts | 326° |
| 2026-05-05 11:31 | 39.54546 | 2.73674 | 30 ft | 9 kts | 330° |
| 2026-05-05 11:31 | 39.54563 | 2.73662 | 30 ft | 0 kts | 329° |
| 2026-05-05 11:32 | 39.54569 | 2.73657 | 30 ft | 4 kts | 329° |
| 2026-05-05 11:32 | 39.54589 | 2.73642 | 30 ft | 3 kts | 330° |
| 2026-05-05 11:33 | 39.54610 | 2.73628 | 30 ft | 5 kts | 332° |
| 2026-05-05 11:33 | 39.54646 | 2.73620 | 30 ft | 5 kts | 353° |
| 2026-05-05 11:33 | 39.54673 | 2.73605 | 30 ft | 4 kts | 330° |
| 2026-05-05 11:33 | 39.54694 | 2.73589 | 30 ft | 3 kts | 329° |
| 2026-05-05 11:34 | 39.54710 | 2.73577 | 30 ft | 2 kts | 329° |
| 2026-05-05 11:34 | 39.54729 | 2.73579 | 30 ft | 3 kts | 30° |
| 2026-05-05 11:34 | 39.54735 | 2.73597 | 30 ft | 2 kts | 68° |
| 2026-05-05 11:34 | 39.54743 | 2.73617 | 30 ft | 2 kts | 60° |
| 2026-05-05 11:35 | 39.54749 | 2.73629 | 30 ft | 2 kts | 59° |
| 2026-05-05 11:35 | 39.54749 | 2.73630 | 30 ft | 0 kts | 59° |